Time,TemperatureF,DewpointF,PressureIn,WindDirection,WindDirectionDegrees,WindSpeedMPH,WindSpeedGustMPH,Humidity,HourlyPrecipIn,Conditions,Clouds,dailyrainin,SoftwareType,DateUTC
2013-02-03 00:01:00,20.0,8.0,30.55,East,83,7.0,9.0,59,0.00,,,0.00,Wunderground v.1.15,2013-02-03 07:01:00,
2013-02-03 00:10:00,20.1,7.7,30.55,ESE,102,8.0,9.0,58,0.00,,,0.00,Wunderground v.1.15,2013-02-03 07:10:00,
2013-02-03 00:20:00,20.0,7.6,30.55,East,81,8.0,8.0,58,0.00,,,0.00,Wunderground v.1.15,2013-02-03 07:20:00,
2013-02-03 00:26:00,19.8,7.8,30.55,East,88,7.0,8.0,59,0.00,,,0.00,Wunderground v.1.15,2013-02-03 07:26:00,
2013-02-03 00:35:00,19.7,7.7,30.54,East,80,7.0,8.0,59,0.00,,,0.00,Wunderground v.1.15,2013-02-03 07:35:00,
2013-02-03 00:41:00,19.6,7.6,30.54,East,90,8.0,8.0,59,0.00,,,0.00,Wunderground v.1.15,2013-02-03 07:41:00,
2013-02-03 00:50:00,19.4,7.8,30.54,East,88,8.0,10.0,60,0.00,,,0.00,Wunderground v.1.15,2013-02-03 07:50:00,
2013-02-03 00:55:00,19.4,7.4,30.53,East,88,8.0,10.0,59,0.00,,,0.00,Wunderground v.1.15,2013-02-03 07:55:00,
2013-02-03 01:01:00,19.3,7.3,30.53,ESE,112,8.0,10.0,59,0.00,,,0.00,Wunderground v.1.15,2013-02-03 08:01:00,
2013-02-03 01:10:00,19.0,7.4,30.53,East,96,7.0,7.0,60,0.00,,,0.00,Wunderground v.1.15,2013-02-03 08:10:00,
2013-02-03 01:15:00,18.9,7.3,30.53,ENE,75,7.0,7.0,60,0.00,,,0.00,Wunderground v.1.15,2013-02-03 08:15:00,
2013-02-03 01:20:00,18.8,7.2,30.53,East,100,7.0,7.0,60,0.00,,,0.00,Wunderground v.1.15,2013-02-03 08:20:00,
2013-02-03 01:25:00,18.8,7.6,30.53,East,86,6.0,7.0,61,0.00,,,0.00,Wunderground v.1.15,2013-02-03 08:25:00,
2013-02-03 01:35:00,18.5,7.3,30.52,East,87,6.0,7.0,61,0.00,,,0.00,Wunderground v.1.15,2013-02-03 08:35:00,
2013-02-03 01:40:00,18.3,7.4,30.52,ESE,103,5.0,7.0,62,0.00,,,0.00,Wunderground v.1.15,2013-02-03 08:40:00,
2013-02-03 01:45:00,18.3,7.1,30.52,East,98,5.0,7.0,61,0.00,,,0.00,Wunderground v.1.15,2013-02-03 08:45:00,
2013-02-03 01:50:00,18.0,7.2,30.52,East,87,5.0,7.0,62,0.00,,,0.00,Wunderground v.1.15,2013-02-03 08:50:00,
2013-02-03 01:55:00,17.9,7.4,30.52,SE,133,4.0,7.0,63,0.00,,,0.00,Wunderground v.1.15,2013-02-03 08:55:00,
2013-02-03 02:01:00,17.9,7.4,30.52,ESE,119,4.0,7.0,63,0.00,,,0.00,Wunderground v.1.15,2013-02-03 09:01:00,
2013-02-03 02:10:00,17.9,7.4,30.52,ESE,119,6.0,6.0,63,0.00,,,0.00,Wunderground v.1.15,2013-02-03 09:10:00,
2013-02-03 02:16:00,17.9,7.4,30.52,ESE,109,5.0,6.0,63,0.00,,,0.00,Wunderground v.1.15,2013-02-03 09:16:00,
2013-02-03 02:26:00,17.6,7.5,30.52,East,88,3.0,7.0,64,0.00,,,0.00,Wunderground v.1.15,2013-02-03 09:26:00,
2013-02-03 02:35:00,17.2,7.4,30.51,East,92,3.0,6.0,65,0.00,,,0.00,Wunderground v.1.15,2013-02-03 09:35:00,
2013-02-03 02:40:00,16.9,7.5,30.51,ESE,114,2.0,2.0,66,0.00,,,0.00,Wunderground v.1.15,2013-02-03 09:40:00,
2013-02-03 02:45:00,16.7,7.3,30.51,ESE,104,2.0,2.0,66,0.00,,,0.00,Wunderground v.1.15,2013-02-03 09:45:00,
2013-02-03 02:55:00,16.4,7.7,30.51,SSE,159,1.0,2.0,68,0.00,,,0.00,Wunderground v.1.15,2013-02-03 09:55:00,
2013-02-03 03:01:00,15.9,7.2,30.50,ESE,123,1.0,1.0,68,0.00,,,0.00,Wunderground v.1.15,2013-02-03 10:01:00,
2013-02-03 03:10:00,15.7,7.3,30.50,ESE,111,1.0,1.0,69,0.00,,,0.00,Wunderground v.1.15,2013-02-03 10:10:00,
2013-02-03 03:20:00,15.1,7.4,30.50,SSE,154,0.0,0.0,71,0.00,,,0.00,Wunderground v.1.15,2013-02-03 10:20:00,
2013-02-03 03:26:00,15.2,7.2,30.49,South,173,0.0,0.0,70,0.00,,,0.00,Wunderground v.1.15,2013-02-03 10:26:00,
2013-02-03 03:36:00,15.1,7.1,30.49,SSE,167,1.0,2.0,70,0.00,,,0.00,Wunderground v.1.15,2013-02-03 10:36:00,
2013-02-03 03:45:00,14.5,7.1,30.48,SW,217,1.0,3.0,72,0.00,,,0.00,Wunderground v.1.15,2013-02-03 10:45:00,
2013-02-03 03:50:00,14.4,7.0,30.48,SSW,205,1.0,1.0,72,0.00,,,0.00,Wunderground v.1.15,2013-02-03 10:50:00,
2013-02-03 03:55:00,14.3,6.9,30.48,SSW,204,1.0,1.0,72,0.00,,,0.00,Wunderground v.1.15,2013-02-03 10:55:00,
2013-02-03 04:01:00,14.1,7.0,30.48,SSW,211,1.0,3.0,73,0.00,,,0.00,Wunderground v.1.15,2013-02-03 11:01:00,
2013-02-03 04:10:00,14.0,6.9,30.48,SW,217,1.0,1.0,73,0.00,,,0.00,Wunderground v.1.15,2013-02-03 11:10:00,
2013-02-03 04:15:00,13.7,6.6,30.47,SW,217,0.0,1.0,73,0.00,,,0.00,Wunderground v.1.15,2013-02-03 11:15:00,
2013-02-03 04:20:00,13.6,6.8,30.47,SW,217,0.0,0.0,74,0.00,,,0.00,Wunderground v.1.15,2013-02-03 11:20:00,
2013-02-03 04:25:00,13.5,6.8,30.47,SSE,152,0.0,0.0,74,0.00,,,0.00,Wunderground v.1.15,2013-02-03 11:25:00,
2013-02-03 04:30:00,13.4,6.7,30.47,SSE,152,0.0,0.0,74,0.00,,,0.00,Wunderground v.1.15,2013-02-03 11:30:00,
2013-02-03 04:40:00,13.3,6.9,30.47,SE,145,0.0,0.0,75,0.00,,,0.00,Wunderground v.1.15,2013-02-03 11:40:00,
2013-02-03 04:50:00,13.0,6.6,30.46,SSE,156,0.0,0.0,75,0.00,,,0.00,Wunderground v.1.15,2013-02-03 11:50:00,
2013-02-03 04:55:00,13.0,6.9,30.46,SSE,156,0.0,0.0,76,0.00,,,0.00,Wunderground v.1.15,2013-02-03 11:55:00,
2013-02-03 05:01:00,12.8,6.7,30.46,SSE,156,0.0,0.0,76,0.00,,,0.00,Wunderground v.1.15,2013-02-03 12:01:00,
2013-02-03 05:10:00,12.8,6.9,30.45,SSE,156,0.0,0.0,77,0.00,,,0.00,Wunderground v.1.15,2013-02-03 12:10:00,
2013-02-03 05:21:00,12.6,6.8,30.45,SSE,156,0.0,0.0,77,0.00,,,0.00,Wunderground v.1.15,2013-02-03 12:21:00,
2013-02-03 05:26:00,12.4,6.6,30.45,SSE,156,0.0,0.0,77,0.00,,,0.00,Wunderground v.1.15,2013-02-03 12:26:00,
2013-02-03 05:35:00,12.1,6.3,30.45,SSE,156,0.0,0.0,77,0.00,,,0.00,Wunderground v.1.15,2013-02-03 12:35:00,
2013-02-03 05:45:00,12.1,6.3,30.44,SSE,156,0.0,0.0,77,0.00,,,0.00,Wunderground v.1.15,2013-02-03 12:45:00,
2013-02-03 05:50:00,11.9,6.4,30.44,SSE,156,0.0,0.0,78,0.00,,,0.00,Wunderground v.1.15,2013-02-03 12:50:00,
2013-02-03 05:55:00,11.9,6.4,30.44,SSE,156,0.0,0.0,78,0.00,,,0.00,Wunderground v.1.15,2013-02-03 12:55:00,
2013-02-03 06:01:00,11.8,6.3,30.44,SSE,156,0.0,0.0,78,0.00,,,0.00,Wunderground v.1.15,2013-02-03 13:01:00,
2013-02-03 06:10:00,11.6,6.3,30.43,SSE,156,0.0,0.0,79,0.00,,,0.00,Wunderground v.1.15,2013-02-03 13:10:00,
2013-02-03 06:15:00,11.6,6.1,30.43,SSE,156,0.0,0.0,78,0.00,,,0.00,Wunderground v.1.15,2013-02-03 13:15:00,
2013-02-03 06:20:00,11.6,6.3,30.43,SSE,156,0.0,0.0,79,0.00,,,0.00,Wunderground v.1.15,2013-02-03 13:20:00,
2013-02-03 06:30:00,11.5,6.2,30.43,SSE,156,0.0,0.0,79,0.00,,,0.00,Wunderground v.1.15,2013-02-03 13:30:00,
2013-02-03 06:40:00,11.6,6.3,30.43,SSE,156,0.0,0.0,79,0.00,,,0.00,Wunderground v.1.15,2013-02-03 13:40:00,
2013-02-03 06:50:00,11.7,6.7,30.42,SSE,156,0.0,0.0,80,0.00,,,0.00,Wunderground v.1.15,2013-02-03 13:50:00,
2013-02-03 06:55:00,11.9,6.9,30.42,SSE,156,0.0,0.0,80,0.00,,,0.00,Wunderground v.1.15,2013-02-03 13:55:00,
2013-02-03 07:01:00,12.2,7.2,30.42,SSE,156,0.0,0.0,80,0.00,,,0.00,Wunderground v.1.15,2013-02-03 14:01:00,
2013-02-03 07:10:00,12.6,7.9,30.42,SSE,156,0.0,0.0,81,0.00,,,0.00,Wunderground v.1.15,2013-02-03 14:10:00,
2013-02-03 07:16:00,12.8,8.1,30.42,SSE,156,0.0,0.0,81,0.00,,,0.00,Wunderground v.1.15,2013-02-03 14:16:00,
2013-02-03 07:26:00,13.4,8.7,30.41,SSE,156,0.0,0.0,81,0.00,,,0.00,Wunderground v.1.15,2013-02-03 14:26:00,
2013-02-03 07:35:00,14.2,9.4,30.41,SSE,156,0.0,0.0,81,0.00,,,0.00,Wunderground v.1.15,2013-02-03 14:35:00,
2013-02-03 07:40:00,14.5,10.0,30.41,SSE,156,0.0,0.0,82,0.00,,,0.00,Wunderground v.1.15,2013-02-03 14:40:00,
2013-02-03 07:45:00,14.9,10.1,30.40,SSE,156,0.0,0.0,81,0.00,,,0.00,Wunderground v.1.15,2013-02-03 14:45:00,
2013-02-03 07:50:00,15.2,10.7,30.40,SSE,156,0.0,0.0,82,0.00,,,0.00,Wunderground v.1.15,2013-02-03 14:50:00,
2013-02-03 08:01:00,16.5,12.2,30.39,SSE,156,0.0,0.0,83,0.00,,,0.00,Wunderground v.1.15,2013-02-03 15:01:00,
2013-02-03 08:10:00,17.7,12.9,30.39,ENE,76,0.0,0.0,81,0.00,,,0.00,Wunderground v.1.15,2013-02-03 15:10:00,
2013-02-03 08:15:00,18.2,13.3,30.39,SE,144,0.0,1.0,81,0.00,,,0.00,Wunderground v.1.15,2013-02-03 15:15:00,
2013-02-03 08:21:00,19.3,14.7,30.39,South,172,0.0,0.0,82,0.00,,,0.00,Wunderground v.1.15,2013-02-03 15:21:00,
2013-02-03 08:31:00,20.4,14.9,30.38,SSE,157,0.0,0.0,79,0.00,,,0.00,Wunderground v.1.15,2013-02-03 15:31:00,
2013-02-03 08:40:00,22.0,16.5,30.37,East,88,0.0,0.0,79,0.00,,,0.00,Wunderground v.1.15,2013-02-03 15:40:00,
2013-02-03 08:45:00,22.5,16.4,30.37,East,82,0.0,1.0,77,0.00,,,0.00,Wunderground v.1.15,2013-02-03 15:45:00,
2013-02-03 08:50:00,23.5,17.3,30.37,East,88,0.0,0.0,77,0.00,,,0.00,Wunderground v.1.15,2013-02-03 15:50:00,
2013-02-03 09:01:00,25.3,18.2,30.36,SE,135,0.0,1.0,74,0.00,,,0.00,Wunderground v.1.15,2013-02-03 16:01:00,
2013-02-03 09:11:00,26.9,19.1,30.35,South,184,0.0,1.0,72,0.00,,,0.00,Wunderground v.1.15,2013-02-03 16:11:00,
2013-02-03 09:21:00,28.6,19.4,30.35,SSE,167,0.0,0.0,68,0.00,,,0.00,Wunderground v.1.15,2013-02-03 16:21:00,
2013-02-03 09:31:00,30.4,19.3,30.34,South,180,0.0,0.0,63,0.00,,,0.00,Wunderground v.1.15,2013-02-03 16:31:00,
2013-02-03 09:40:00,33.0,19.4,30.33,SSE,165,0.0,0.0,57,0.00,,,0.00,Wunderground v.1.15,2013-02-03 16:40:00,
2013-02-03 09:50:00,35.7,17.4,30.33,NNW,330,0.0,2.0,47,0.00,,,0.00,Wunderground v.1.15,2013-02-03 16:50:00,
2013-02-03 09:55:00,37.3,15.7,30.33,NW,326,1.0,4.0,41,0.00,,,0.00,Wunderground v.1.15,2013-02-03 16:55:00,
2013-02-03 10:01:00,40.0,9.5,30.32,NW,321,3.0,3.0,28,0.00,,,0.00,Wunderground v.1.15,2013-02-03 17:01:00,
2013-02-03 10:10:00,42.1,2.7,30.32,NNW,327,5.0,6.0,19,0.00,,,0.00,Wunderground v.1.15,2013-02-03 17:10:00,
2013-02-03 10:15:00,42.6,0.7,30.32,NW,323,5.0,7.0,17,0.00,,,0.00,Wunderground v.1.15,2013-02-03 17:15:00,
2013-02-03 10:20:00,42.9,2.2,30.32,NNW,331,6.0,11.0,18,0.00,,,0.00,Wunderground v.1.15,2013-02-03 17:20:00,
2013-02-03 10:30:00,43.2,-0.1,30.32,NNW,347,6.0,7.0,16,0.00,,,0.00,Wunderground v.1.15,2013-02-03 17:30:00,
2013-02-03 10:35:00,43.4,-1.3,30.31,NNW,327,7.0,8.0,15,0.00,,,0.00,Wunderground v.1.15,2013-02-03 17:35:00,
2013-02-03 10:45:00,43.7,-2.5,30.31,NW,326,6.0,7.0,14,0.00,,,0.00,Wunderground v.1.15,2013-02-03 17:45:00,
2013-02-03 10:50:00,43.6,0.3,30.30,NNW,332,5.0,5.0,16,0.00,,,0.00,Wunderground v.1.15,2013-02-03 17:50:00,
2013-02-03 10:55:00,43.7,0.3,30.30,NNW,340,5.0,5.0,16,0.00,,,0.00,Wunderground v.1.15,2013-02-03 17:55:00,
2013-02-03 11:01:00,43.7,-1.0,30.29,NW,325,6.0,6.0,15,0.00,,,0.00,Wunderground v.1.15,2013-02-03 18:01:00,
2013-02-03 11:10:00,44.0,-2.2,30.28,NW,322,5.0,5.0,14,0.00,,,0.00,Wunderground v.1.15,2013-02-03 18:10:00,
2013-02-03 11:15:00,44.1,-2.2,30.28,NNW,338,4.0,7.0,14,0.00,,,0.00,Wunderground v.1.15,2013-02-03 18:15:00,
2013-02-03 11:20:00,44.5,1.0,30.28,NNW,329,4.0,6.0,16,0.00,,,0.00,Wunderground v.1.15,2013-02-03 18:20:00,
2013-02-03 11:25:00,44.7,1.2,30.28,NNW,348,6.0,6.0,16,0.00,,,0.00,Wunderground v.1.15,2013-02-03 18:25:00,
2013-02-03 11:30:00,44.6,2.4,30.27,WNW,297,6.0,6.0,17,0.00,,,0.00,Wunderground v.1.15,2013-02-03 18:30:00,
2013-02-03 11:40:00,44.8,2.6,30.27,NNW,329,5.0,5.0,17,0.00,,,0.00,Wunderground v.1.15,2013-02-03 18:40:00,
2013-02-03 11:45:00,45.1,5.2,30.26,NNW,335,6.0,6.0,19,0.00,,,0.00,Wunderground v.1.15,2013-02-03 18:45:00,
2013-02-03 11:50:00,45.3,6.5,30.26,NW,310,6.0,6.0,20,0.00,,,0.00,Wunderground v.1.15,2013-02-03 18:50:00,
2013-02-03 11:55:00,45.3,5.4,30.25,NW,313,6.0,6.0,19,0.00,,,0.00,Wunderground v.1.15,2013-02-03 18:55:00,
2013-02-03 12:01:00,45.4,4.3,30.25,NNW,336,7.0,8.0,18,0.00,,,0.00,Wunderground v.1.15,2013-02-03 19:01:00,
2013-02-03 12:10:00,45.6,4.5,30.24,NNW,343,7.0,7.0,18,0.00,,,0.00,Wunderground v.1.15,2013-02-03 19:10:00,
2013-02-03 12:16:00,45.5,6.7,30.24,NNW,340,7.0,11.0,20,0.00,,,0.00,Wunderground v.1.15,2013-02-03 19:16:00,
2013-02-03 12:25:00,45.2,4.1,30.23,NNW,336,7.0,7.0,18,0.00,,,0.00,Wunderground v.1.15,2013-02-03 19:25:00,
2013-02-03 12:31:00,45.4,4.3,30.23,NW,316,6.0,7.0,18,0.00,,,0.00,Wunderground v.1.15,2013-02-03 19:31:00,
2013-02-03 12:40:00,45.0,5.1,30.22,NW,320,8.0,9.0,19,0.00,,,0.00,Wunderground v.1.15,2013-02-03 19:40:00,
2013-02-03 12:45:00,44.9,6.2,30.22,NW,317,8.0,9.0,20,0.00,,,0.00,Wunderground v.1.15,2013-02-03 19:45:00,
2013-02-03 12:50:00,44.9,7.3,30.21,NNW,343,7.0,7.0,21,0.00,,,0.00,Wunderground v.1.15,2013-02-03 19:50:00,
2013-02-03 13:01:00,44.3,8.8,30.21,NNW,335,7.0,10.0,23,0.00,,,0.00,Wunderground v.1.15,2013-02-03 20:01:00,
2013-02-03 13:10:00,43.8,11.1,30.20,NW,323,7.0,7.0,26,0.00,,,0.00,Wunderground v.1.15,2013-02-03 20:10:00,
2013-02-03 13:15:00,43.4,11.6,30.20,NNW,335,6.0,7.0,27,0.00,,,0.00,Wunderground v.1.15,2013-02-03 20:15:00,
2013-02-03 13:25:00,42.8,11.9,30.19,NNW,331,5.0,6.0,28,0.00,,,0.00,Wunderground v.1.15,2013-02-03 20:25:00,
2013-02-03 13:30:00,42.5,13.2,30.19,NNW,327,4.0,4.0,30,0.00,,,0.00,Wunderground v.1.15,2013-02-03 20:30:00,
2013-02-03 13:35:00,42.2,13.7,30.19,NW,321,4.0,4.0,31,0.00,,,0.00,Wunderground v.1.15,2013-02-03 20:35:00,
2013-02-03 13:40:00,41.8,13.3,30.19,NNW,328,4.0,5.0,31,0.00,,,0.00,Wunderground v.1.15,2013-02-03 20:40:00,
2013-02-03 13:45:00,41.6,13.9,30.18,NW,323,5.0,7.0,32,0.00,,,0.00,Wunderground v.1.15,2013-02-03 20:45:00,
2013-02-03 13:50:00,41.6,14.6,30.18,NW,315,4.0,4.0,33,0.00,,,0.00,Wunderground v.1.15,2013-02-03 20:50:00,
2013-02-03 13:55:00,41.6,15.3,30.18,NW,308,4.0,5.0,34,0.00,,,0.00,Wunderground v.1.15,2013-02-03 20:55:00,
2013-02-03 14:01:00,41.3,14.3,30.18,NNW,329,5.0,5.0,33,0.00,,,0.00,Wunderground v.1.15,2013-02-03 21:01:00,
2013-02-03 14:10:00,41.3,14.3,30.18,NW,316,5.0,8.0,33,0.00,,,0.00,Wunderground v.1.15,2013-02-03 21:10:00,
2013-02-03 14:15:00,41.3,15.0,30.17,NNW,330,5.0,8.0,34,0.00,,,0.00,Wunderground v.1.15,2013-02-03 21:15:00,
2013-02-03 14:20:00,41.1,14.8,30.17,WNW,302,5.0,5.0,34,0.00,,,0.00,Wunderground v.1.15,2013-02-03 21:20:00,
2013-02-03 14:26:00,40.9,16.0,30.17,NNW,336,4.0,5.0,36,0.00,,,0.00,Wunderground v.1.15,2013-02-03 21:26:00,
2013-02-03 14:35:00,40.8,15.9,30.16,NNW,338,5.0,5.0,36,0.00,,,0.00,Wunderground v.1.15,2013-02-03 21:35:00,
2013-02-03 14:40:00,40.9,16.0,30.16,NNW,327,5.0,5.0,36,0.00,,,0.00,Wunderground v.1.15,2013-02-03 21:40:00,
2013-02-03 14:45:00,40.7,15.8,30.15,WNW,301,4.0,5.0,36,0.00,,,0.00,Wunderground v.1.15,2013-02-03 21:45:00,
2013-02-03 14:50:00,40.7,15.8,30.15,NW,308,4.0,5.0,36,0.00,,,0.00,Wunderground v.1.15,2013-02-03 21:50:00,
2013-02-03 14:55:00,40.9,15.3,30.15,NNW,339,5.0,5.0,35,0.00,,,0.00,Wunderground v.1.15,2013-02-03 21:55:00,
2013-02-03 15:01:00,41.2,15.6,30.15,NW,321,5.0,5.0,35,0.00,,,0.00,Wunderground v.1.15,2013-02-03 22:01:00,
2013-02-03 15:10:00,41.5,15.2,30.15,NW,306,6.0,6.0,34,0.00,,,0.00,Wunderground v.1.15,2013-02-03 22:10:00,
2013-02-03 15:15:00,41.5,15.8,30.15,WNW,300,5.0,6.0,35,0.00,,,0.00,Wunderground v.1.15,2013-02-03 22:15:00,
2013-02-03 15:25:00,41.4,15.1,30.14,NW,304,5.0,6.0,34,0.00,,,0.00,Wunderground v.1.15,2013-02-03 22:25:00,
2013-02-03 15:30:00,41.3,14.3,30.14,NNW,338,5.0,8.0,33,0.00,,,0.00,Wunderground v.1.15,2013-02-03 22:30:00,
2013-02-03 15:40:00,41.1,14.8,30.14,NW,305,7.0,7.0,34,0.00,,,0.00,Wunderground v.1.15,2013-02-03 22:40:00,
2013-02-03 15:45:00,41.0,14.7,30.14,NW,307,6.0,7.0,34,0.00,,,0.00,Wunderground v.1.15,2013-02-03 22:45:00,
2013-02-03 15:50:00,40.9,14.6,30.14,NNW,333,5.0,11.0,34,0.00,,,0.00,Wunderground v.1.15,2013-02-03 22:50:00,
2013-02-03 15:55:00,40.7,14.5,30.14,NW,322,6.0,11.0,34,0.00,,,0.00,Wunderground v.1.15,2013-02-03 22:55:00,
2013-02-03 16:01:00,40.5,15.0,30.14,WNW,302,6.0,6.0,35,0.00,,,0.00,Wunderground v.1.15,2013-02-03 23:01:00,
2013-02-03 16:10:00,40.1,13.9,30.14,WNW,294,6.0,6.0,34,0.00,,,0.00,Wunderground v.1.15,2013-02-03 23:10:00,
2013-02-03 16:20:00,39.8,14.3,30.13,NNW,342,6.0,6.0,35,0.00,,,0.00,Wunderground v.1.15,2013-02-03 23:20:00,
2013-02-03 16:26:00,39.6,14.2,30.13,NNW,329,6.0,8.0,35,0.00,,,0.00,Wunderground v.1.15,2013-02-03 23:26:00,
2013-02-03 16:35:00,39.1,13.7,30.13,WNW,301,7.0,7.0,35,0.00,,,0.00,Wunderground v.1.15,2013-02-03 23:35:00,
2013-02-03 16:50:00,38.6,14.5,30.13,NNW,340,6.0,6.0,37,0.00,,,0.00,Wunderground v.1.15,2013-02-03 23:50:00,
2013-02-03 16:55:00,38.3,14.9,30.12,NW,311,5.0,6.0,38,0.00,,,0.00,Wunderground v.1.15,2013-02-03 23:55:00,
2013-02-03 17:01:00,38.0,14.6,30.12,North,355,5.0,7.0,38,0.00,,,0.00,Wunderground v.1.15,2013-02-04 00:01:00,
2013-02-03 17:10:00,37.4,15.8,30.12,NNW,336,5.0,5.0,41,0.00,,,0.00,Wunderground v.1.15,2013-02-04 00:10:00,
2013-02-03 17:20:00,37.0,16.0,30.12,NW,323,6.0,6.0,42,0.00,,,0.00,Wunderground v.1.15,2013-02-04 00:20:00,
2013-02-03 17:25:00,36.8,15.3,30.12,NW,321,6.0,10.0,41,0.00,,,0.00,Wunderground v.1.15,2013-02-04 00:25:00,
2013-02-03 17:35:00,36.2,15.8,30.13,NNW,327,5.0,10.0,43,0.00,,,0.00,Wunderground v.1.15,2013-02-04 00:35:00,
2013-02-03 17:45:00,36.0,16.7,30.13,NW,323,7.0,7.0,45,0.00,,,0.00,Wunderground v.1.15,2013-02-04 00:45:00,
2013-02-03 17:50:00,35.8,17.0,30.13,NW,309,7.0,7.0,46,0.00,,,0.00,Wunderground v.1.15,2013-02-04 00:50:00,
2013-02-03 17:55:00,35.6,17.3,30.13,NNW,335,7.0,7.0,47,0.00,,,0.00,Wunderground v.1.15,2013-02-04 00:55:00,
2013-02-03 18:01:00,35.4,17.6,30.13,WNW,299,7.0,7.0,48,0.00,,,0.00,Wunderground v.1.15,2013-02-04 01:01:00,
2013-02-03 18:10:00,35.2,17.9,30.12,NNW,333,6.0,6.0,49,0.00,,,0.00,Wunderground v.1.15,2013-02-04 01:10:00,
2013-02-03 18:20:00,34.9,18.6,30.13,North,355,6.0,8.0,51,0.00,,,0.00,Wunderground v.1.15,2013-02-04 01:20:00,
2013-02-03 18:30:00,34.6,18.8,30.14,NW,311,6.0,6.0,52,0.00,,,0.00,Wunderground v.1.15,2013-02-04 01:30:00,
2013-02-03 18:40:00,34.4,19.0,30.14,NNW,327,5.0,5.0,53,0.00,,,0.00,Wunderground v.1.15,2013-02-04 01:40:00,
2013-02-03 18:50:00,34.3,19.4,30.15,NNW,345,5.0,9.0,54,0.00,,,0.00,Wunderground v.1.15,2013-02-04 01:50:00,
2013-02-03 18:55:00,34.3,19.8,30.14,NNW,333,6.0,9.0,55,0.00,,,0.00,Wunderground v.1.15,2013-02-04 01:55:00,
2013-02-03 19:01:00,34.3,19.8,30.14,NNE,22,6.0,6.0,55,0.00,,,0.00,Wunderground v.1.15,2013-02-04 02:01:00,
2013-02-03 19:10:00,34.2,20.1,30.13,NW,317,6.0,8.0,56,0.00,,,0.00,Wunderground v.1.15,2013-02-04 02:10:00,
2013-02-03 19:15:00,34.1,20.0,30.13,North,351,5.0,8.0,56,0.00,,,0.00,Wunderground v.1.15,2013-02-04 02:15:00,
2013-02-03 19:26:00,33.9,19.8,30.12,NW,321,6.0,6.0,56,0.00,,,0.00,Wunderground v.1.15,2013-02-04 02:26:00,
2013-02-03 19:35:00,33.7,20.1,30.12,NW,309,5.0,5.0,57,0.00,,,0.00,Wunderground v.1.15,2013-02-04 02:35:00,
2013-02-03 19:40:00,33.5,19.9,30.11,NNW,336,5.0,5.0,57,0.00,,,0.00,Wunderground v.1.15,2013-02-04 02:40:00,
2013-02-03 19:50:00,33.4,19.8,30.11,NNW,327,6.0,6.0,57,0.00,,,0.00,Wunderground v.1.15,2013-02-04 02:50:00,
2013-02-03 20:01:00,33.1,19.5,30.11,NW,324,5.0,5.0,57,0.00,,,0.00,Wunderground v.1.15,2013-02-04 03:01:00,
2013-02-03 20:10:00,33.1,18.7,30.11,NW,315,5.0,5.0,55,0.00,,,0.00,Wunderground v.1.15,2013-02-04 03:10:00,
2013-02-03 20:15:00,33.2,18.8,30.11,NNW,332,5.0,5.0,55,0.00,,,0.00,Wunderground v.1.15,2013-02-04 03:15:00,
2013-02-03 20:25:00,32.9,18.9,30.10,NW,312,5.0,6.0,56,0.00,,,0.00,Wunderground v.1.15,2013-02-04 03:25:00,
2013-02-03 20:35:00,32.8,18.0,30.10,NNW,330,5.0,6.0,54,0.00,,,0.00,Wunderground v.1.15,2013-02-04 03:35:00,
2013-02-03 20:45:00,32.8,18.0,30.10,NNW,329,5.0,9.0,54,0.00,,,0.00,Wunderground v.1.15,2013-02-04 03:45:00,
2013-02-03 20:50:00,32.7,18.3,30.11,NNW,330,4.0,4.0,55,0.00,,,0.00,Wunderground v.1.15,2013-02-04 03:50:00,
2013-02-03 20:55:00,32.0,18.1,30.11,WNW,288,3.0,4.0,56,0.00,,,0.00,Wunderground v.1.15,2013-02-04 03:55:00,
2013-02-03 21:01:00,31.5,18.0,30.11,NW,323,2.0,2.0,57,0.00,,,0.00,Wunderground v.1.15,2013-02-04 04:01:00,
2013-02-03 21:10:00,31.5,18.8,30.11,NW,306,3.0,3.0,59,0.00,,,0.00,Wunderground v.1.15,2013-02-04 04:10:00,
2013-02-03 21:20:00,32.3,18.3,30.11,NW,306,4.0,4.0,56,0.00,,,0.00,Wunderground v.1.15,2013-02-04 04:20:00,
2013-02-03 21:25:00,32.2,18.7,30.12,NW,311,3.0,4.0,57,0.00,,,0.00,Wunderground v.1.15,2013-02-04 04:25:00,
2013-02-03 21:31:00,32.3,18.3,30.12,NW,321,3.0,3.0,56,0.00,,,0.00,Wunderground v.1.15,2013-02-04 04:31:00,
2013-02-03 21:40:00,32.4,18.8,30.11,WNW,295,3.0,3.0,57,0.00,,,0.00,Wunderground v.1.15,2013-02-04 04:40:00,
2013-02-03 21:55:00,32.3,18.3,30.12,NW,313,3.0,4.0,56,0.00,,,0.00,Wunderground v.1.15,2013-02-04 04:55:00,
2013-02-03 22:05:00,31.4,18.3,30.12,WNW,302,1.0,3.0,58,0.00,,,0.00,Wunderground v.1.15,2013-02-04 05:05:00,
2013-02-03 22:10:00,31.0,18.3,30.12,WNW,288,1.0,1.0,59,0.00,,,0.00,Wunderground v.1.15,2013-02-04 05:10:00,
2013-02-03 22:15:00,31.2,18.9,30.12,NW,321,1.0,2.0,60,0.00,,,0.00,Wunderground v.1.15,2013-02-04 05:15:00,
2013-02-03 22:20:00,31.0,18.3,30.12,WNW,289,1.0,2.0,59,0.00,,,0.00,Wunderground v.1.15,2013-02-04 05:20:00,
2013-02-03 22:25:00,31.1,18.8,30.12,NNW,336,2.0,2.0,60,0.00,,,0.00,Wunderground v.1.15,2013-02-04 05:25:00,
2013-02-03 22:31:00,31.0,18.7,30.11,NW,306,2.0,2.0,60,0.00,,,0.00,Wunderground v.1.15,2013-02-04 05:31:00,
2013-02-03 22:35:00,30.8,18.5,30.11,NW,323,1.0,2.0,60,0.00,,,0.00,Wunderground v.1.15,2013-02-04 05:35:00,
2013-02-03 22:45:00,30.5,18.6,30.11,NW,311,1.0,1.0,61,0.00,,,0.00,Wunderground v.1.15,2013-02-04 05:45:00,
2013-02-03 22:55:00,29.3,19.0,30.10,NW,311,0.0,1.0,65,0.00,,,0.00,Wunderground v.1.15,2013-02-04 05:55:00,
2013-02-03 23:01:00,28.7,19.5,30.10,NW,311,0.0,0.0,68,0.00,,,0.00,Wunderground v.1.15,2013-02-04 06:01:00,
2013-02-03 23:05:00,28.4,19.5,30.10,NW,311,0.0,0.0,69,0.00,,,0.00,Wunderground v.1.15,2013-02-04 06:05:00,
2013-02-03 23:20:00,28.3,19.1,30.10,West,281,0.0,0.0,68,0.00,,,0.00,Wunderground v.1.15,2013-02-04 06:20:00,
2013-02-03 23:25:00,28.6,19.0,30.10,NW,307,0.0,0.0,67,0.00,,,0.00,Wunderground v.1.15,2013-02-04 06:25:00,
2013-02-03 23:31:00,28.4,19.5,30.10,NW,307,0.0,0.0,69,0.00,,,0.00,Wunderground v.1.15,2013-02-04 06:31:00,
2013-02-03 23:40:00,27.6,19.8,30.09,NW,307,0.0,0.0,72,0.00,,,0.00,Wunderground v.1.15,2013-02-04 06:40:00,
2013-02-03 23:45:00,27.6,19.8,30.10,NW,307,0.0,0.0,72,0.00,,,0.00,Wunderground v.1.15,2013-02-04 06:45:00,
2013-02-03 23:55:00,27.4,19.9,30.09,NW,307,0.0,0.0,73,0.00,,,0.00,Wunderground v.1.15,2013-02-04 06:55:00,